createdAt,value
2016-12-15T00:00:29.891Z,1045.92
2016-12-15T00:01:29.880Z,1045.94
2016-12-15T00:02:29.867Z,1045.95
2016-12-15T00:03:29.856Z,1046
2016-12-15T00:04:29.845Z,1046.08
2016-12-15T00:05:29.833Z,1046.14
2016-12-15T00:06:29.821Z,1046.23
2016-12-15T00:07:29.810Z,1046.29
2016-12-15T00:08:29.799Z,1046.31
2016-12-15T00:09:29.789Z,1046.36
2016-12-15T00:10:29.775Z,1046.37
2016-12-15T00:11:29.764Z,1046.39
2016-12-15T00:12:29.753Z,1046.46
2016-12-15T00:13:29.740Z,1046.41
2016-12-15T00:14:29.732Z,1046.43
2016-12-15T00:15:29.718Z,1046.46
2016-12-15T00:16:29.705Z,1046.46
2016-12-15T00:17:29.694Z,1046.41
2016-12-15T00:18:29.683Z,1046.44
2016-12-15T00:19:29.671Z,1046.39
2016-12-15T00:20:29.659Z,1046.4
2016-12-15T00:21:29.648Z,1046.4
2016-12-15T00:22:29.637Z,1046.4
2016-12-15T00:23:29.625Z,1046.4
2016-12-15T00:24:29.612Z,1046.42
2016-12-15T00:25:29.601Z,1046.45
2016-12-15T00:26:29.590Z,1046.47
2016-12-15T00:27:29.577Z,1046.51
2016-12-15T00:28:29.566Z,1046.57
2016-12-15T00:29:29.556Z,1046.63
2016-12-15T00:30:29.544Z,1046.61
2016-12-15T00:31:29.531Z,1046.72
2016-12-15T00:32:29.519Z,1046.78
2016-12-15T00:33:29.508Z,1046.77
2016-12-15T00:34:29.496Z,1046.8
2016-12-15T00:35:29.484Z,1046.76
2016-12-15T00:36:29.472Z,1046.74
2016-12-15T00:37:29.461Z,1046.69
2016-12-15T00:38:29.448Z,1046.63
2016-12-15T00:39:29.436Z,1046.58
2016-12-15T00:40:29.425Z,1046.54
2016-12-15T00:41:29.415Z,1046.48
2016-12-15T00:42:29.401Z,1046.41
2016-12-15T00:43:29.389Z,1046.34
2016-12-15T00:44:29.377Z,1046.28
2016-12-15T00:45:29.366Z,1046.27
2016-12-15T00:46:29.354Z,1046.34
2016-12-15T00:47:29.342Z,1046.36
2016-12-15T00:48:29.331Z,1046.4
2016-12-15T00:49:29.318Z,1046.47
2016-12-15T00:50:29.307Z,1046.51
2016-12-15T00:51:29.295Z,1046.54
2016-12-15T00:52:29.283Z,1046.54
2016-12-15T00:53:29.271Z,1046.58
2016-12-15T00:54:29.259Z,1046.52
2016-12-15T00:55:29.249Z,1046.52
2016-12-15T00:56:29.236Z,1046.56
2016-12-15T00:57:29.224Z,1046.5
2016-12-15T00:58:29.212Z,1046.49
2016-12-15T00:59:29.200Z,1046.49
2016-12-15T01:00:29.188Z,1046.44
2016-12-15T01:01:29.176Z,1046.38
2016-12-15T01:02:29.165Z,1046.36
2016-12-15T01:03:29.154Z,1046.34
2016-12-15T01:04:29.142Z,1046.38
2016-12-15T01:05:29.129Z,1046.37
2016-12-15T01:06:29.118Z,1046.39
2016-12-15T01:07:29.107Z,1046.41
2016-12-15T01:08:29.095Z,1046.39
2016-12-15T01:09:29.083Z,1046.44
2016-12-15T01:10:29.072Z,1046.45
2016-12-15T01:11:29.059Z,1046.43
2016-12-15T01:12:29.048Z,1046.43
2016-12-15T01:13:29.036Z,1046.47
2016-12-15T01:14:29.025Z,1046.52
2016-12-15T01:15:29.012Z,1046.53
2016-12-15T01:16:29.001Z,1046.56
2016-12-15T01:17:28.989Z,1046.56
2016-12-15T01:18:28.976Z,1046.56
2016-12-15T01:19:28.965Z,1046.53
2016-12-15T01:20:28.953Z,1046.54
2016-12-15T01:21:28.942Z,1046.54
2016-12-15T01:22:28.929Z,1046.51
2016-12-15T01:23:28.918Z,1046.55
2016-12-15T01:24:28.910Z,1046.56
2016-12-15T01:25:28.894Z,1046.58
2016-12-15T01:26:28.882Z,1046.57
2016-12-15T01:27:28.870Z,1046.59
2016-12-15T01:28:28.859Z,1046.6
2016-12-15T01:29:28.847Z,1046.55
2016-12-15T01:30:28.835Z,1046.55
2016-12-15T01:31:28.823Z,1046.54
2016-12-15T01:32:28.812Z,1046.52
2016-12-15T01:33:28.799Z,1046.48
2016-12-15T01:34:28.787Z,1046.49
2016-12-15T01:35:28.776Z,1046.46
2016-12-15T01:36:28.764Z,1046.46
2016-12-15T01:37:28.752Z,1046.44
2016-12-15T01:38:28.740Z,1046.42
2016-12-15T01:39:28.729Z,1046.41
2016-12-15T01:40:28.716Z,1046.39
2016-12-15T01:41:28.704Z,1046.41
2016-12-15T01:42:28.696Z,1046.41
2016-12-15T01:43:28.683Z,1046.43
2016-12-15T01:44:28.668Z,1046.38
2016-12-15T01:45:28.657Z,1046.4
2016-12-15T01:46:28.645Z,1046.37
2016-12-15T01:47:28.633Z,1046.42
2016-12-15T01:48:28.621Z,1046.4
2016-12-15T01:49:28.610Z,1046.44
2016-12-15T01:50:28.598Z,1046.44
2016-12-15T01:51:28.588Z,1046.46
2016-12-15T01:52:28.574Z,1046.5
2016-12-15T01:53:28.566Z,1046.5
2016-12-15T01:54:28.551Z,1046.5
2016-12-15T01:55:28.539Z,1046.49
2016-12-15T01:56:28.526Z,1046.51
2016-12-15T01:57:28.516Z,1046.49
2016-12-15T01:58:28.504Z,1046.51
2016-12-15T01:59:28.492Z,1046.49
2016-12-15T02:00:28.480Z,1046.51
2016-12-15T02:01:28.471Z,1046.52
2016-12-15T02:02:28.457Z,1046.52
2016-12-15T02:03:28.445Z,1046.54
2016-12-15T02:04:28.435Z,1046.59
2016-12-15T02:05:28.422Z,1046.6
2016-12-15T02:06:28.410Z,1046.63
2016-12-15T02:07:28.399Z,1046.67
2016-12-15T02:08:28.387Z,1046.72
2016-12-15T02:09:28.377Z,1046.72
2016-12-15T02:10:28.363Z,1046.74
2016-12-15T02:11:28.352Z,1046.72
2016-12-15T02:12:28.341Z,1046.73
2016-12-15T02:13:28.328Z,1046.72
2016-12-15T02:14:28.317Z,1046.75
2016-12-15T02:15:28.306Z,1046.73
2016-12-15T02:16:28.294Z,1046.74
2016-12-15T02:17:28.282Z,1046.7
2016-12-15T02:18:28.270Z,1046.68
2016-12-15T02:19:28.259Z,1046.67
2016-12-15T02:20:28.250Z,1046.65
2016-12-15T02:21:28.235Z,1046.7
2016-12-15T02:22:28.224Z,1046.73
2016-12-15T02:23:28.213Z,1046.72
2016-12-15T02:24:28.200Z,1046.73
2016-12-15T02:25:28.189Z,1046.78
2016-12-15T02:26:28.177Z,1046.84
2016-12-15T02:27:28.166Z,1046.85
2016-12-15T02:28:28.154Z,1046.92
2016-12-15T02:29:28.142Z,1046.94
2016-12-15T02:30:28.131Z,1046.96
2016-12-15T02:31:28.120Z,1046.96
2016-12-15T02:32:28.107Z,1046.97
2016-12-15T02:33:28.096Z,1046.98
2016-12-15T02:34:28.084Z,1047
2016-12-15T02:35:28.072Z,1046.96
2016-12-15T02:36:28.060Z,1046.96
2016-12-15T02:37:28.049Z,1046.96
2016-12-15T02:38:28.037Z,1046.95
2016-12-15T02:39:28.025Z,1046.95
2016-12-15T02:40:28.015Z,1046.97
2016-12-15T02:41:28.003Z,1047
2016-12-15T02:42:27.993Z,1046.97
2016-12-15T02:43:27.980Z,1046.92
2016-12-15T02:44:27.968Z,1046.91
2016-12-15T02:45:27.957Z,1046.86
2016-12-15T02:46:27.945Z,1046.9
2016-12-15T02:47:27.933Z,1046.9
2016-12-15T02:48:27.922Z,1046.94
2016-12-15T02:49:27.910Z,1046.89
2016-12-15T02:50:27.898Z,1046.93
2016-12-15T02:51:27.886Z,1046.96
2016-12-15T02:52:27.875Z,1046.97
2016-12-15T02:53:27.862Z,1046.99
2016-12-15T02:54:27.851Z,1047
2016-12-15T02:55:27.839Z,1046.97
2016-12-15T02:56:27.828Z,1047
2016-12-15T02:57:27.816Z,1046.98
2016-12-15T02:58:27.806Z,1046.98
2016-12-15T02:59:27.793Z,1046.96
2016-12-15T03:00:27.781Z,1046.92
2016-12-15T03:01:27.769Z,1046.92
2016-12-15T03:02:27.758Z,1046.94
2016-12-15T03:03:27.746Z,1046.91
2016-12-15T03:04:27.734Z,1046.9
2016-12-15T03:05:27.722Z,1046.89
2016-12-15T03:06:27.711Z,1046.84
2016-12-15T03:07:27.699Z,1046.86
2016-12-15T03:08:27.688Z,1046.83
2016-12-15T03:09:27.675Z,1046.84
2016-12-15T03:10:27.664Z,1046.81
2016-12-15T03:11:27.653Z,1046.83
2016-12-15T03:12:27.641Z,1046.82
2016-12-15T03:13:27.629Z,1046.83
2016-12-15T03:14:27.618Z,1046.76
2016-12-15T03:15:27.605Z,1046.76
2016-12-15T03:16:27.594Z,1046.76
2016-12-15T03:17:27.582Z,1046.79
2016-12-15T03:18:27.571Z,1046.77
2016-12-15T03:19:27.559Z,1046.78
2016-12-15T03:20:27.548Z,1046.82
2016-12-15T03:21:27.537Z,1046.86
2016-12-15T03:22:27.525Z,1046.88
2016-12-15T03:23:27.513Z,1046.9
2016-12-15T03:24:27.502Z,1046.95
2016-12-15T03:25:27.490Z,1046.98
2016-12-15T03:26:27.478Z,1046.99
2016-12-15T03:27:27.467Z,1047.05
2016-12-15T03:28:27.456Z,1047.06
2016-12-15T03:29:27.444Z,1047.12
2016-12-15T03:30:27.432Z,1047.16
2016-12-15T03:31:27.421Z,1047.17
2016-12-15T03:32:27.410Z,1047.19
2016-12-15T03:33:27.398Z,1047.17
2016-12-15T03:34:27.386Z,1047.18
2016-12-15T03:35:27.374Z,1047.12
2016-12-15T03:36:27.363Z,1047.1
2016-12-15T03:37:27.350Z,1047.08
2016-12-15T03:38:27.339Z,1047.07
2016-12-15T03:39:27.328Z,1047.04
2016-12-15T03:40:27.317Z,1047.02
2016-12-15T03:41:27.304Z,1047.04
2016-12-15T03:42:27.293Z,1047.03
2016-12-15T03:43:27.282Z,1047.03
2016-12-15T03:44:27.270Z,1047
2016-12-15T03:45:27.258Z,1047.04
2016-12-15T03:46:27.247Z,1047.02
2016-12-15T03:47:27.235Z,1047.04
2016-12-15T03:48:27.223Z,1046.97
2016-12-15T03:49:27.213Z,1047
2016-12-15T03:50:27.204Z,1046.98
2016-12-15T03:51:27.189Z,1046.94
2016-12-15T03:52:27.177Z,1046.91
2016-12-15T03:53:27.165Z,1046.88
2016-12-15T03:54:27.154Z,1046.83
2016-12-15T03:55:27.143Z,1046.81
2016-12-15T03:56:27.131Z,1046.82
2016-12-15T03:57:27.119Z,1046.84
2016-12-15T03:58:27.108Z,1046.83
2016-12-15T03:59:27.097Z,1046.84
2016-12-15T04:00:27.085Z,1046.88
2016-12-15T04:01:27.073Z,1046.84
2016-12-15T04:02:27.063Z,1046.84
2016-12-15T04:03:27.050Z,1046.84
2016-12-15T04:04:27.042Z,1046.84
2016-12-15T04:05:27.027Z,1046.78
2016-12-15T04:06:27.016Z,1046.82
2016-12-15T04:07:27.004Z,1046.75
2016-12-15T04:08:26.994Z,1046.77
2016-12-15T04:09:26.981Z,1046.79
2016-12-15T04:10:26.969Z,1046.78
2016-12-15T04:11:26.958Z,1046.79
2016-12-15T04:12:26.947Z,1046.83
2016-12-15T04:13:26.936Z,1046.83
2016-12-15T04:14:26.923Z,1046.83
2016-12-15T04:15:26.912Z,1046.79
2016-12-15T04:16:26.901Z,1046.76
2016-12-15T04:17:26.890Z,1046.77
2016-12-15T04:18:26.879Z,1046.73
2016-12-15T04:19:26.868Z,1046.77
2016-12-15T04:20:26.856Z,1046.79
2016-12-15T04:21:26.844Z,1046.74
2016-12-15T04:22:26.833Z,1046.73
2016-12-15T04:23:26.823Z,1046.73
2016-12-15T04:24:26.811Z,1046.76
2016-12-15T04:25:26.799Z,1046.81
2016-12-15T04:26:26.788Z,1046.82
2016-12-15T04:27:26.776Z,1046.86
2016-12-15T04:28:26.764Z,1046.9
2016-12-15T04:29:26.753Z,1046.94
2016-12-15T04:30:26.741Z,1046.99
2016-12-15T04:31:26.731Z,1047.01
2016-12-15T04:32:26.720Z,1046.96
2016-12-15T04:33:26.707Z,1046.95
2016-12-15T04:34:26.696Z,1046.91
2016-12-15T04:35:26.685Z,1046.93
2016-12-15T04:36:26.673Z,1046.91
2016-12-15T04:37:26.661Z,1046.9
2016-12-15T04:38:26.650Z,1046.87
2016-12-15T04:39:26.638Z,1046.94
2016-12-15T04:40:26.627Z,1046.95
2016-12-15T04:41:26.616Z,1046.94
2016-12-15T04:42:26.604Z,1046.97
2016-12-15T04:43:26.592Z,1046.97
2016-12-15T04:44:26.581Z,1047
2016-12-15T04:45:26.570Z,1047.11
2016-12-15T04:46:26.559Z,1047.14
2016-12-15T04:47:26.546Z,1047.23
2016-12-15T04:48:26.535Z,1047.25
2016-12-15T04:49:26.524Z,1047.24
2016-12-15T04:50:26.514Z,1047.26
2016-12-15T04:51:26.504Z,1047.24
2016-12-15T04:52:26.489Z,1047.23
2016-12-15T04:53:26.480Z,1047.17
2016-12-15T04:54:26.465Z,1047.12
2016-12-15T04:55:26.454Z,1047.07
2016-12-15T04:56:26.443Z,1047.09
2016-12-15T04:57:26.432Z,1047.05
2016-12-15T04:58:26.419Z,1047.03
2016-12-15T04:59:26.408Z,1047.01
2016-12-15T05:00:26.397Z,1047.01
2016-12-15T05:01:26.384Z,1046.98
2016-12-15T05:02:26.373Z,1047.02
2016-12-15T05:03:26.362Z,1047.05
2016-12-15T05:04:26.350Z,1047.09
2016-12-15T05:05:26.338Z,1047.07
2016-12-15T05:06:26.327Z,1047.1
2016-12-15T05:07:26.315Z,1047.12
2016-12-15T05:08:26.304Z,1047.12
2016-12-15T05:09:26.292Z,1047.14
2016-12-15T05:10:26.280Z,1047.14
2016-12-15T05:11:26.269Z,1047.16
2016-12-15T05:12:26.258Z,1047.16
2016-12-15T05:13:26.246Z,1047.18
2016-12-15T05:14:26.235Z,1047.13
2016-12-15T05:15:26.225Z,1047.13
2016-12-15T05:16:26.211Z,1047.18
2016-12-15T05:17:26.200Z,1047.19
2016-12-15T05:18:26.189Z,1047.2
2016-12-15T05:19:26.177Z,1047.24
2016-12-15T05:20:26.165Z,1047.22
2016-12-15T05:21:26.157Z,1047.25
2016-12-15T05:22:26.142Z,1047.21
2016-12-15T05:23:26.131Z,1047.31
2016-12-15T05:24:26.119Z,1047.28
2016-12-15T05:25:26.108Z,1047.31
2016-12-15T05:26:26.097Z,1047.34
2016-12-15T05:27:26.084Z,1047.33
2016-12-15T05:28:26.073Z,1047.33
2016-12-15T05:29:26.062Z,1047.37
2016-12-15T05:30:26.051Z,1047.35
2016-12-15T05:31:26.039Z,1047.34
2016-12-15T05:32:26.027Z,1047.33
2016-12-15T05:33:26.016Z,1047.31
2016-12-15T05:34:26.004Z,1047.36
2016-12-15T05:35:25.993Z,1047.34
2016-12-15T05:36:25.981Z,1047.43
2016-12-15T05:37:25.971Z,1047.47
2016-12-15T05:38:25.958Z,1047.53
2016-12-15T05:39:25.947Z,1047.64
2016-12-15T05:40:25.935Z,1047.64
2016-12-15T05:41:25.924Z,1047.64
2016-12-15T05:42:25.912Z,1047.63
2016-12-15T05:43:25.901Z,1047.67
2016-12-15T05:44:25.889Z,1047.7
2016-12-15T05:45:25.877Z,1047.74
2016-12-15T05:46:25.866Z,1047.73
2016-12-15T05:47:25.854Z,1047.74
2016-12-15T05:48:25.843Z,1047.72
2016-12-15T05:49:25.831Z,1047.75
2016-12-15T05:50:25.819Z,1047.81
2016-12-15T05:51:25.808Z,1047.83
2016-12-15T05:52:25.797Z,1047.85
2016-12-15T05:53:25.785Z,1047.85
2016-12-15T05:54:25.774Z,1047.87
2016-12-15T05:55:25.763Z,1047.89
2016-12-15T05:56:25.750Z,1047.94
2016-12-15T05:57:25.739Z,1047.94
2016-12-15T05:58:25.727Z,1047.97
2016-12-15T05:59:25.716Z,1047.99
2016-12-15T06:00:25.703Z,1047.98
2016-12-15T06:01:25.691Z,1047.99
2016-12-15T06:02:25.681Z,1048.05
2016-12-15T06:03:25.668Z,1048.06
2016-12-15T06:04:25.657Z,1048.12
2016-12-15T06:05:25.645Z,1048.15
2016-12-15T06:06:25.633Z,1048.11
2016-12-15T06:07:25.620Z,1048.15
2016-12-15T06:08:25.609Z,1048.14
2016-12-15T06:09:25.599Z,1048.16
2016-12-15T06:10:25.586Z,1048.11
2016-12-15T06:11:25.574Z,1048.06
2016-12-15T06:12:25.562Z,1048.07
2016-12-15T06:13:25.550Z,1048.02
2016-12-15T06:14:25.538Z,1048.02
2016-12-15T06:15:25.526Z,1048
2016-12-15T06:16:25.515Z,1047.97
2016-12-15T06:17:25.503Z,1047.95
2016-12-15T06:18:25.491Z,1047.92
2016-12-15T06:19:25.479Z,1047.9
2016-12-15T06:20:25.468Z,1047.87
2016-12-15T06:21:25.456Z,1047.85
2016-12-15T06:22:25.443Z,1047.85
2016-12-15T06:23:25.432Z,1047.81
2016-12-15T06:24:25.420Z,1047.81
2016-12-15T06:25:25.407Z,1047.74
2016-12-15T06:26:25.396Z,1047.77
2016-12-15T06:27:25.384Z,1047.81
2016-12-15T06:28:25.372Z,1047.81
2016-12-15T06:29:25.360Z,1047.79
2016-12-15T06:30:25.349Z,1047.79
2016-12-15T06:31:25.337Z,1047.85
2016-12-15T06:32:25.327Z,1047.83
2016-12-15T06:33:25.313Z,1047.88
2016-12-15T06:34:25.302Z,1047.92
2016-12-15T06:35:25.290Z,1047.98
2016-12-15T06:36:25.278Z,1047.99
2016-12-15T06:37:25.266Z,1048
2016-12-15T06:38:25.254Z,1048.03
2016-12-15T06:39:25.243Z,1048.1
2016-12-15T06:40:25.231Z,1048.16
2016-12-15T06:41:25.219Z,1048.2
2016-12-15T06:42:25.208Z,1048.2
2016-12-15T06:43:25.196Z,1048.24
2016-12-15T06:44:25.184Z,1048.22
2016-12-15T06:45:25.172Z,1048.28
2016-12-15T06:46:25.160Z,1048.26
2016-12-15T06:47:25.148Z,1048.3
2016-12-15T06:48:25.136Z,1048.28
2016-12-15T06:49:25.125Z,1048.27
2016-12-15T06:50:25.113Z,1048.25
2016-12-15T06:51:25.100Z,1048.26
2016-12-15T06:52:25.089Z,1048.25
2016-12-15T06:53:25.077Z,1048.25
2016-12-15T06:54:25.066Z,1048.22
2016-12-15T06:55:25.054Z,1048.3
2016-12-15T06:56:25.042Z,1048.31
2016-12-15T06:57:25.030Z,1048.34
2016-12-15T06:58:25.020Z,1048.3
2016-12-15T06:59:25.006Z,1048.33
2016-12-15T07:00:24.994Z,1048.29
2016-12-15T07:01:24.985Z,1048.31
2016-12-15T07:02:24.970Z,1048.33
2016-12-15T07:03:24.959Z,1048.34
2016-12-15T07:04:24.947Z,1048.3
2016-12-15T07:05:24.935Z,1048.34
2016-12-15T07:06:24.923Z,1048.31
2016-12-15T07:07:24.912Z,1048.31
2016-12-15T07:08:24.899Z,1048.3
2016-12-15T07:09:24.887Z,1048.3
2016-12-15T07:10:24.875Z,1048.29
2016-12-15T07:11:24.863Z,1048.25
2016-12-15T07:12:24.852Z,1048.28
2016-12-15T07:13:24.839Z,1048.25
2016-12-15T07:14:24.831Z,1048.26
2016-12-15T07:15:24.817Z,1048.25
2016-12-15T07:16:24.805Z,1048.27
2016-12-15T07:17:24.793Z,1048.29
2016-12-15T07:18:24.781Z,1048.27
2016-12-15T07:19:24.770Z,1048.27
2016-12-15T07:20:24.757Z,1048.29
2016-12-15T07:21:24.746Z,1048.3
2016-12-15T07:22:24.734Z,1048.28
2016-12-15T07:23:24.723Z,1048.3
2016-12-15T07:24:24.711Z,1048.32
2016-12-15T07:25:24.699Z,1048.29
2016-12-15T07:26:24.688Z,1048.28
2016-12-15T07:27:24.678Z,1048.28
2016-12-15T07:28:24.665Z,1048.25
2016-12-15T07:29:24.653Z,1048.23
2016-12-15T07:30:24.643Z,1048.25
2016-12-15T07:31:24.630Z,1048.27
2016-12-15T07:32:24.618Z,1048.29
2016-12-15T07:33:24.609Z,1048.3
2016-12-15T07:34:24.595Z,1048.32
2016-12-15T07:35:24.583Z,1048.34
2016-12-15T07:36:24.572Z,1048.37
2016-12-15T07:37:24.560Z,1048.36
2016-12-15T07:38:24.550Z,1048.4
2016-12-15T07:39:24.537Z,1048.38
2016-12-15T07:40:24.526Z,1048.36
2016-12-15T07:41:24.516Z,1048.35
2016-12-15T07:42:24.502Z,1048.38
2016-12-15T07:43:24.491Z,1048.38
2016-12-15T07:44:24.480Z,1048.39
2016-12-15T07:45:24.468Z,1048.4
2016-12-15T07:46:24.456Z,1048.41
2016-12-15T07:47:24.444Z,1048.43
2016-12-15T07:48:24.433Z,1048.46
2016-12-15T07:49:24.421Z,1048.48
2016-12-15T07:50:24.410Z,1048.49
2016-12-15T07:51:24.399Z,1048.57
2016-12-15T07:52:24.387Z,1048.54
2016-12-15T07:53:24.375Z,1048.51
2016-12-15T07:54:24.364Z,1048.53
2016-12-15T07:55:24.353Z,1048.59
2016-12-15T07:56:24.341Z,1048.58
2016-12-15T07:57:24.329Z,1048.62
2016-12-15T07:58:24.318Z,1048.6
2016-12-15T07:59:24.307Z,1048.68
2016-12-15T08:00:24.295Z,1048.65
2016-12-15T08:01:24.284Z,1048.66
2016-12-15T08:02:24.273Z,1048.66
2016-12-15T08:03:24.262Z,1048.68
2016-12-15T08:04:24.250Z,1048.68
2016-12-15T08:05:24.239Z,1048.68
2016-12-15T08:06:24.228Z,1048.68
2016-12-15T08:07:24.216Z,1048.68
2016-12-15T08:08:24.205Z,1048.75
2016-12-15T08:09:24.193Z,1048.74
2016-12-15T08:10:24.182Z,1048.74
2016-12-15T08:11:24.170Z,1048.72
2016-12-15T08:12:24.159Z,1048.77
2016-12-15T08:13:24.147Z,1048.73
2016-12-15T08:14:24.137Z,1048.73
2016-12-15T08:15:24.124Z,1048.66
2016-12-15T08:16:24.113Z,1048.7
2016-12-15T08:17:24.102Z,1048.67
2016-12-15T08:18:24.091Z,1048.69
2016-12-15T08:19:24.079Z,1048.64
2016-12-15T08:20:24.068Z,1048.61
2016-12-15T08:21:24.057Z,1048.63
2016-12-15T08:22:24.045Z,1048.62
2016-12-15T08:23:24.034Z,1048.56
2016-12-15T08:24:24.025Z,1048.56
2016-12-15T08:25:24.012Z,1048.53
2016-12-15T08:26:23.999Z,1048.48
2016-12-15T08:27:23.988Z,1048.49
2016-12-15T08:28:23.978Z,1048.47
2016-12-15T08:29:23.966Z,1048.45
2016-12-15T08:30:23.957Z,1048.43
2016-12-15T08:31:23.944Z,1048.43
2016-12-15T08:32:23.933Z,1048.45
2016-12-15T08:33:23.921Z,1048.44
2016-12-15T08:34:23.910Z,1048.5
2016-12-15T08:35:23.899Z,1048.48
2016-12-15T08:36:23.889Z,1048.44
2016-12-15T08:37:23.876Z,1048.51
2016-12-15T08:38:23.865Z,1048.52
2016-12-15T08:39:23.855Z,1048.59
2016-12-15T08:40:23.844Z,1048.62
2016-12-15T08:41:23.832Z,1048.7
2016-12-15T08:42:23.822Z,1048.77
2016-12-15T08:43:23.811Z,1048.79
2016-12-15T08:44:23.799Z,1048.87
2016-12-15T08:45:23.788Z,1048.89
2016-12-15T08:46:23.778Z,1048.92
2016-12-15T08:47:23.766Z,1048.9
2016-12-15T08:48:23.755Z,1048.91
2016-12-15T08:49:23.744Z,1048.92
2016-12-15T08:50:23.734Z,1048.88
2016-12-15T08:51:23.723Z,1048.89
2016-12-15T08:52:23.712Z,1048.9
2016-12-15T08:53:23.700Z,1048.86
2016-12-15T08:54:23.690Z,1048.83
2016-12-15T08:55:23.678Z,1048.79
2016-12-15T08:56:23.667Z,1048.78
2016-12-15T08:57:23.656Z,1048.8
2016-12-15T08:58:23.646Z,1048.85
2016-12-15T08:59:23.634Z,1048.9
2016-12-15T09:00:23.623Z,1048.9
2016-12-15T09:01:23.613Z,1048.92
2016-12-15T09:02:23.602Z,1048.96
2016-12-15T09:03:23.591Z,1048.98
2016-12-15T09:04:23.589Z,1049.01
2016-12-15T09:05:23.572Z,1049.03
2016-12-15T09:06:23.558Z,1048.98
2016-12-15T09:07:23.547Z,1049
2016-12-15T09:08:23.537Z,1048.93
2016-12-15T09:09:23.525Z,1048.86
2016-12-15T09:10:23.513Z,1048.86
2016-12-15T09:11:23.503Z,1048.82
2016-12-15T09:12:23.492Z,1048.69
2016-12-15T09:13:23.479Z,1048.66
2016-12-15T09:14:23.469Z,1048.64
2016-12-15T09:15:23.458Z,1048.58
2016-12-15T09:16:23.448Z,1048.61
2016-12-15T09:17:23.436Z,1048.55
2016-12-15T09:18:23.428Z,1048.52
2016-12-15T09:19:23.414Z,1048.55
2016-12-15T09:20:23.405Z,1048.57
2016-12-15T09:21:23.392Z,1048.63
2016-12-15T09:22:23.385Z,1048.64
2016-12-15T09:23:23.373Z,1048.64
2016-12-15T09:24:23.359Z,1048.68
2016-12-15T09:25:23.349Z,1048.7
2016-12-15T09:26:23.338Z,1048.64
2016-12-15T09:27:23.327Z,1048.63
2016-12-15T09:28:23.315Z,1048.58
2016-12-15T09:29:23.305Z,1048.59
2016-12-15T09:30:23.294Z,1048.59
2016-12-15T09:31:23.285Z,1048.54
2016-12-15T09:32:23.272Z,1048.56
2016-12-15T09:33:23.261Z,1048.56
2016-12-15T09:34:23.251Z,1048.57
2016-12-15T09:35:23.239Z,1048.51
2016-12-15T09:36:23.228Z,1048.5
2016-12-15T09:37:23.218Z,1048.4
2016-12-15T09:38:23.207Z,1048.3
2016-12-15T09:39:23.196Z,1048.26
2016-12-15T09:40:23.185Z,1048.24
2016-12-15T09:41:23.175Z,1048.23
2016-12-15T09:42:23.164Z,1048.16
2016-12-15T09:43:23.153Z,1048.14
2016-12-15T09:44:23.144Z,1048.16
2016-12-15T09:45:23.134Z,1048.17
2016-12-15T09:46:23.121Z,1048.2
2016-12-15T09:47:23.110Z,1048.21
2016-12-15T09:48:23.100Z,1048.17
2016-12-15T09:49:23.089Z,1048.17
2016-12-15T09:50:23.078Z,1048.16
2016-12-15T09:51:23.068Z,1048.17
2016-12-15T09:52:23.058Z,1048.12
2016-12-15T10:01:22.953Z,1048.16
2016-12-15T10:02:22.941Z,1048.12
2016-12-15T10:03:22.929Z,1048.13
2016-12-15T10:04:22.923Z,1048.13
2016-12-15T10:05:22.906Z,1048.13
2016-12-15T10:06:22.895Z,1048.14
2016-12-15T10:07:22.883Z,1048.12
2016-12-15T10:08:22.871Z,1048.14
2016-12-15T10:09:22.861Z,1048.14
2016-12-15T10:10:22.850Z,1048.12
2016-12-15T10:11:22.839Z,1048.11
2016-12-15T10:12:22.827Z,1048.12
2016-12-15T10:13:22.816Z,1048.08
2016-12-15T10:14:22.806Z,1048.06
2016-12-15T10:15:22.796Z,1048.03
2016-12-15T10:16:22.784Z,1048.03
2016-12-15T10:17:22.773Z,1047.99
2016-12-15T10:18:22.763Z,1047.97
2016-12-15T10:19:22.753Z,1047.94
2016-12-15T10:20:22.742Z,1047.91
2016-12-15T10:21:22.732Z,1047.88
2016-12-15T10:22:22.723Z,1047.84
2016-12-15T10:23:22.710Z,1047.78
2016-12-15T10:24:22.700Z,1047.8
2016-12-15T10:25:22.690Z,1047.76
2016-12-15T10:26:22.681Z,1047.82
2016-12-15T10:27:22.670Z,1047.79
2016-12-15T10:28:22.659Z,1047.74
2016-12-15T10:29:22.648Z,1047.67
2016-12-15T10:30:22.639Z,1047.63
2016-12-15T10:31:22.628Z,1047.55
2016-12-15T10:32:22.618Z,1047.52
2016-12-15T10:33:22.608Z,1047.49
2016-12-15T10:34:22.596Z,1047.45
2016-12-15T10:35:22.587Z,1047.39
2016-12-15T10:36:22.577Z,1047.37
2016-12-15T10:37:22.567Z,1047.35
2016-12-15T10:38:22.557Z,1047.33
2016-12-15T10:39:22.547Z,1047.31
2016-12-15T10:40:22.537Z,1047.32
2016-12-15T10:41:22.527Z,1047.32
2016-12-15T10:42:22.517Z,1047.29
2016-12-15T10:43:22.507Z,1047.27
2016-12-15T10:44:22.499Z,1047.22
2016-12-15T10:45:22.487Z,1047.22
2016-12-15T10:46:22.477Z,1047.21
2016-12-15T10:47:22.467Z,1047.17
2016-12-15T10:48:22.456Z,1047.18
2016-12-15T10:49:22.447Z,1047.17
2016-12-15T10:50:22.442Z,1047.21
2016-12-15T10:51:22.429Z,1047.19
2016-12-15T10:52:22.416Z,1047.19
2016-12-15T10:53:22.407Z,1047.18
2016-12-15T10:54:22.400Z,1047.19
2016-12-15T10:55:22.388Z,1047.22
2016-12-15T10:56:22.378Z,1047.25
2016-12-15T10:57:22.368Z,1047.3
2016-12-15T10:58:22.358Z,1047.35
2016-12-15T10:59:22.348Z,1047.35
2016-12-15T11:00:22.338Z,1047.42
2016-12-15T11:01:22.328Z,1047.4
2016-12-15T11:02:22.319Z,1047.38
2016-12-15T11:03:22.308Z,1047.33
2016-12-15T11:04:22.300Z,1047.24
2016-12-15T11:05:22.289Z,1047.21
2016-12-15T11:06:22.279Z,1047.19
2016-12-15T11:07:22.270Z,1047.24
2016-12-15T11:08:22.259Z,1047.24
2016-12-15T11:09:22.249Z,1047.2
2016-12-15T11:10:22.239Z,1047.27
2016-12-15T11:11:22.229Z,1047.34
2016-12-15T11:12:22.220Z,1047.35
2016-12-15T11:13:22.210Z,1047.42
2016-12-15T11:14:22.199Z,1047.42
2016-12-15T11:15:22.190Z,1047.35
2016-12-15T11:16:22.181Z,1047.35
2016-12-15T11:17:22.171Z,1047.36
2016-12-15T11:18:22.163Z,1047.32
2016-12-15T11:19:22.150Z,1047.34
2016-12-15T11:20:22.140Z,1047.34
2016-12-15T11:21:22.130Z,1047.34
2016-12-15T11:22:22.120Z,1047.31
2016-12-15T11:23:22.110Z,1047.33
2016-12-15T11:24:22.101Z,1047.31
2016-12-15T11:25:22.090Z,1047.31
2016-12-15T11:26:22.080Z,1047.29
2016-12-15T11:27:22.070Z,1047.33
2016-12-15T11:28:22.060Z,1047.33
2016-12-15T11:29:22.050Z,1047.38
2016-12-15T11:30:22.040Z,1047.35
2016-12-15T11:31:22.030Z,1047.39
2016-12-15T11:32:22.020Z,1047.35
2016-12-15T11:33:22.010Z,1047.36
2016-12-15T11:34:22.000Z,1047.43
2016-12-15T11:35:21.990Z,1047.43
2016-12-15T11:36:21.979Z,1047.42
2016-12-15T11:37:21.969Z,1047.44
2016-12-15T11:38:21.960Z,1047.51
2016-12-15T11:39:21.950Z,1047.48
2016-12-15T11:40:21.940Z,1047.5
2016-12-15T11:41:21.929Z,1047.47
2016-12-15T11:42:21.919Z,1047.5
2016-12-15T11:43:21.909Z,1047.55
2016-12-15T11:44:21.898Z,1047.54
2016-12-15T11:45:21.888Z,1047.59
2016-12-15T11:46:21.878Z,1047.54
2016-12-15T11:47:21.867Z,1047.56
2016-12-15T11:48:21.857Z,1047.52
2016-12-15T11:49:21.847Z,1047.48
2016-12-15T11:50:21.837Z,1047.43
2016-12-15T11:51:21.826Z,1047.48
2016-12-15T11:52:21.816Z,1047.43
2016-12-15T11:53:21.806Z,1047.45
2016-12-15T11:54:21.795Z,1047.45
2016-12-15T11:55:21.786Z,1047.43
2016-12-15T11:56:21.775Z,1047.42
2016-12-15T11:57:21.764Z,1047.39
2016-12-15T11:58:21.753Z,1047.32
2016-12-15T11:59:21.743Z,1047.31
2016-12-15T12:00:21.733Z,1047.27
2016-12-15T12:01:21.723Z,1047.32
2016-12-15T12:02:21.711Z,1047.26
2016-12-15T12:03:21.701Z,1047.27
2016-12-15T12:04:21.691Z,1047.26
2016-12-15T12:05:21.680Z,1047.27
2016-12-15T12:06:21.670Z,1047.27
2016-12-15T12:07:21.659Z,1047.27
2016-12-15T12:08:21.649Z,1047.26
2016-12-15T12:09:21.638Z,1047.3
2016-12-15T12:10:21.628Z,1047.33
2016-12-15T12:11:21.618Z,1047.37
2016-12-15T12:12:21.610Z,1047.43
2016-12-15T12:13:21.597Z,1047.41
2016-12-15T12:14:21.587Z,1047.46
2016-12-15T12:15:21.577Z,1047.45
2016-12-15T12:16:21.566Z,1047.49